sensor_id;sensor_type;location;lat;lon;timestamp;P1;durP1;ratioP1;P2;durP2;ratioP2
13443;SDS011;6794;59.218;18.218;2022-12-18T00:01:17;12.10;;;6.70;;
13443;SDS011;6794;59.218;18.218;2022-12-18T00:03:44;10.43;;;5.90;;
13443;SDS011;6794;59.218;18.218;2022-12-18T00:06:10;11.70;;;6.43;;
13443;SDS011;6794;59.218;18.218;2022-12-18T00:08:37;11.03;;;5.67;;
13443;SDS011;6794;59.218;18.218;2022-12-18T00:11:06;11.30;;;5.97;;
13443;SDS011;6794;59.218;18.218;2022-12-18T00:13:33;9.53;;;5.63;;
13443;SDS011;6794;59.218;18.218;2022-12-18T00:16:03;14.83;;;8.20;;
13443;SDS011;6794;59.218;18.218;2022-12-18T00:18:29;10.80;;;6.70;;
13443;SDS011;6794;59.218;18.218;2022-12-18T00:20:57;9.37;;;6.00;;
13443;SDS011;6794;59.218;18.218;2022-12-18T00:23:24;11.73;;;6.60;;
13443;SDS011;6794;59.218;18.218;2022-12-18T00:25:50;8.80;;;5.73;;
13443;SDS011;6794;59.218;18.218;2022-12-18T00:28:16;9.23;;;4.90;;
13443;SDS011;6794;59.218;18.218;2022-12-18T00:30:42;8.10;;;5.20;;
13443;SDS011;6794;59.218;18.218;2022-12-18T00:33:08;15.95;;;9.25;;
13443;SDS011;6794;59.218;18.218;2022-12-18T00:35:34;14.60;;;8.40;;
13443;SDS011;6794;59.218;18.218;2022-12-18T00:38:00;9.57;;;6.30;;
13443;SDS011;6794;59.218;18.218;2022-12-18T00:40:26;12.83;;;6.60;;
13443;SDS011;6794;59.218;18.218;2022-12-18T00:42:52;10.83;;;5.60;;
13443;SDS011;6794;59.218;18.218;2022-12-18T00:45:24;9.57;;;5.17;;
13443;SDS011;6794;59.218;18.218;2022-12-18T00:47:51;10.27;;;5.10;;
13443;SDS011;6794;59.218;18.218;2022-12-18T00:50:17;10.47;;;5.80;;
13443;SDS011;6794;59.218;18.218;2022-12-18T00:52:43;7.07;;;5.07;;
13443;SDS011;6794;59.218;18.218;2022-12-18T00:55:09;10.90;;;5.33;;
13443;SDS011;6794;59.218;18.218;2022-12-18T00:57:36;8.80;;;5.23;;
13443;SDS011;6794;59.218;18.218;2022-12-18T01:00:03;6.47;;;4.33;;
13443;SDS011;6794;59.218;18.218;2022-12-18T01:02:29;10.83;;;5.80;;
13443;SDS011;6794;59.218;18.218;2022-12-18T01:04:55;9.30;;;5.57;;
13443;SDS011;6794;59.218;18.218;2022-12-18T01:07:21;7.50;;;4.77;;
13443;SDS011;6794;59.218;18.218;2022-12-18T01:09:47;9.30;;;5.23;;
13443;SDS011;6794;59.218;18.218;2022-12-18T01:12:13;8.40;;;4.97;;
13443;SDS011;6794;59.218;18.218;2022-12-18T01:14:39;7.67;;;5.30;;
13443;SDS011;6794;59.218;18.218;2022-12-18T01:17:05;10.10;;;5.60;;
13443;SDS011;6794;59.218;18.218;2022-12-18T01:19:31;10.32;;;6.18;;
13443;SDS011;6794;59.218;18.218;2022-12-18T01:21:57;10.00;;;5.37;;
13443;SDS011;6794;59.218;18.218;2022-12-18T01:24:23;10.07;;;5.53;;
13443;SDS011;6794;59.218;18.218;2022-12-18T01:26:49;7.73;;;4.67;;
13443;SDS011;6794;59.218;18.218;2022-12-18T01:29:15;9.03;;;5.27;;
13443;SDS011;6794;59.218;18.218;2022-12-18T01:31:41;9.47;;;5.00;;
13443;SDS011;6794;59.218;18.218;2022-12-18T01:34:08;10.57;;;5.97;;
13443;SDS011;6794;59.218;18.218;2022-12-18T01:36:35;9.70;;;5.37;;
13443;SDS011;6794;59.218;18.218;2022-12-18T01:39:05;8.77;;;5.07;;
13443;SDS011;6794;59.218;18.218;2022-12-18T01:41:32;7.33;;;4.37;;
13443;SDS011;6794;59.218;18.218;2022-12-18T01:47:02;11.67;;;6.30;;
13443;SDS011;6794;59.218;18.218;2022-12-18T01:49:28;8.53;;;5.13;;
13443;SDS011;6794;59.218;18.218;2022-12-18T01:51:54;9.77;;;5.90;;
13443;SDS011;6794;59.218;18.218;2022-12-18T01:54:20;9.90;;;5.47;;
13443;SDS011;6794;59.218;18.218;2022-12-18T01:56:46;9.37;;;5.20;;
13443;SDS011;6794;59.218;18.218;2022-12-18T01:59:12;9.70;;;5.30;;
13443;SDS011;6794;59.218;18.218;2022-12-18T02:01:39;11.47;;;6.37;;
13443;SDS011;6794;59.218;18.218;2022-12-18T02:07:03;10.25;;;5.90;;
13443;SDS011;6794;59.218;18.218;2022-12-18T02:09:33;10.47;;;6.13;;
13443;SDS011;6794;59.218;18.218;2022-12-18T02:12:06;9.07;;;6.30;;
13443;SDS011;6794;59.218;18.218;2022-12-18T02:14:50;10.53;;;5.90;;
13443;SDS011;6794;59.218;18.218;2022-12-18T02:17:21;8.67;;;5.57;;
13443;SDS011;6794;59.218;18.218;2022-12-18T02:22:23;11.53;;;6.10;;
13443;SDS011;6794;59.218;18.218;2022-12-18T02:24:54;12.63;;;5.03;;
13443;SDS011;6794;59.218;18.218;2022-12-18T02:27:25;8.17;;;5.73;;
13443;SDS011;6794;59.218;18.218;2022-12-18T02:29:52;9.83;;;5.90;;
13443;SDS011;6794;59.218;18.218;2022-12-18T02:32:21;8.70;;;5.40;;
13443;SDS011;6794;59.218;18.218;2022-12-18T02:34:49;12.53;;;6.50;;
13443;SDS011;6794;59.218;18.218;2022-12-18T02:37:17;10.87;;;6.33;;
13443;SDS011;6794;59.218;18.218;2022-12-18T02:39:44;9.53;;;5.97;;
13443;SDS011;6794;59.218;18.218;2022-12-18T02:42:11;8.10;;;5.40;;
13443;SDS011;6794;59.218;18.218;2022-12-18T02:44:41;12.20;;;6.97;;
13443;SDS011;6794;59.218;18.218;2022-12-18T02:47:09;11.83;;;5.97;;
13443;SDS011;6794;59.218;18.218;2022-12-18T02:49:39;10.30;;;6.03;;
13443;SDS011;6794;59.218;18.218;2022-12-18T02:59:41;10.70;;;5.10;;
13443;SDS011;6794;59.218;18.218;2022-12-18T03:02:21;8.40;;;4.60;;
13443;SDS011;6794;59.218;18.218;2022-12-18T03:05:36;7.10;;;5.00;;
13443;SDS011;6794;59.218;18.218;2022-12-18T03:07:47;8.43;;;5.77;;
13443;SDS011;6794;59.218;18.218;2022-12-18T03:10:16;11.40;;;5.97;;
13443;SDS011;6794;59.218;18.218;2022-12-18T03:12:47;11.17;;;5.47;;
13443;SDS011;6794;59.218;18.218;2022-12-18T03:15:27;9.40;;;5.80;;
13443;SDS011;6794;59.218;18.218;2022-12-18T03:17:57;8.77;;;5.93;;
13443;SDS011;6794;59.218;18.218;2022-12-18T03:20:25;11.73;;;6.00;;
13443;SDS011;6794;59.218;18.218;2022-12-18T03:22:53;8.67;;;5.23;;
13443;SDS011;6794;59.218;18.218;2022-12-18T03:25:21;8.30;;;5.50;;
13443;SDS011;6794;59.218;18.218;2022-12-18T03:27:49;7.87;;;5.17;;
13443;SDS011;6794;59.218;18.218;2022-12-18T03:30:17;10.00;;;5.23;;
13443;SDS011;6794;59.218;18.218;2022-12-18T03:32:53;7.60;;;5.70;;
13443;SDS011;6794;59.218;18.218;2022-12-18T03:35:24;8.30;;;4.77;;
13443;SDS011;6794;59.218;18.218;2022-12-18T03:37:52;8.53;;;5.33;;
13443;SDS011;6794;59.218;18.218;2022-12-18T03:40:19;9.67;;;6.53;;
13443;SDS011;6794;59.218;18.218;2022-12-18T03:42:48;10.07;;;6.63;;
13443;SDS011;6794;59.218;18.218;2022-12-18T03:45:19;7.90;;;5.30;;
13443;SDS011;6794;59.218;18.218;2022-12-18T03:50:41;6.47;;;4.27;;
13443;SDS011;6794;59.218;18.218;2022-12-18T03:56:00;8.40;;;4.83;;
13443;SDS011;6794;59.218;18.218;2022-12-18T03:58:27;8.53;;;6.03;;
13443;SDS011;6794;59.218;18.218;2022-12-18T04:00:55;8.07;;;4.80;;
13443;SDS011;6794;59.218;18.218;2022-12-18T04:03:22;8.50;;;4.57;;
13443;SDS011;6794;59.218;18.218;2022-12-18T04:05:49;7.77;;;4.87;;
13443;SDS011;6794;59.218;18.218;2022-12-18T04:08:16;8.97;;;4.87;;
13443;SDS011;6794;59.218;18.218;2022-12-18T04:10:43;9.97;;;5.53;;
13443;SDS011;6794;59.218;18.218;2022-12-18T04:13:09;5.80;;;3.43;;
13443;SDS011;6794;59.218;18.218;2022-12-18T04:15:35;11.07;;;5.00;;
13443;SDS011;6794;59.218;18.218;2022-12-18T04:18:02;8.23;;;5.10;;
13443;SDS011;6794;59.218;18.218;2022-12-18T04:20:28;8.90;;;5.03;;
13443;SDS011;6794;59.218;18.218;2022-12-18T04:22:55;7.93;;;4.80;;
13443;SDS011;6794;59.218;18.218;2022-12-18T04:25:21;7.00;;;4.30;;
13443;SDS011;6794;59.218;18.218;2022-12-18T04:27:47;7.17;;;4.77;;
13443;SDS011;6794;59.218;18.218;2022-12-18T04:30:13;9.60;;;5.70;;
13443;SDS011;6794;59.218;18.218;2022-12-18T04:32:39;10.37;;;5.73;;
13443;SDS011;6794;59.218;18.218;2022-12-18T04:35:05;7.43;;;5.20;;
13443;SDS011;6794;59.218;18.218;2022-12-18T04:37:35;9.67;;;4.60;;
13443;SDS011;6794;59.218;18.218;2022-12-18T04:40:01;7.60;;;4.27;;
13443;SDS011;6794;59.218;18.218;2022-12-18T04:42:27;7.03;;;3.87;;
13443;SDS011;6794;59.218;18.218;2022-12-18T04:44:53;7.93;;;5.10;;
13443;SDS011;6794;59.218;18.218;2022-12-18T04:47:19;6.90;;;3.60;;
13443;SDS011;6794;59.218;18.218;2022-12-18T04:49:45;9.50;;;4.67;;
13443;SDS011;6794;59.218;18.218;2022-12-18T04:52:11;7.60;;;4.27;;
13443;SDS011;6794;59.218;18.218;2022-12-18T04:54:37;8.37;;;4.83;;
13443;SDS011;6794;59.218;18.218;2022-12-18T04:57:03;10.53;;;5.67;;
13443;SDS011;6794;59.218;18.218;2022-12-18T04:59:29;9.30;;;4.97;;
13443;SDS011;6794;59.218;18.218;2022-12-18T05:01:55;8.90;;;4.90;;
13443;SDS011;6794;59.218;18.218;2022-12-18T05:04:21;7.53;;;4.83;;
13443;SDS011;6794;59.218;18.218;2022-12-18T05:06:47;8.23;;;5.10;;
13443;SDS011;6794;59.218;18.218;2022-12-18T05:09:13;10.70;;;5.67;;
13443;SDS011;6794;59.218;18.218;2022-12-18T05:11:39;9.23;;;5.27;;
13443;SDS011;6794;59.218;18.218;2022-12-18T05:14:05;7.37;;;4.60;;
13443;SDS011;6794;59.218;18.218;2022-12-18T05:16:31;10.10;;;5.30;;
13443;SDS011;6794;59.218;18.218;2022-12-18T05:18:57;9.63;;;5.30;;
13443;SDS011;6794;59.218;18.218;2022-12-18T05:21:23;13.10;;;5.40;;
13443;SDS011;6794;59.218;18.218;2022-12-18T05:23:49;9.97;;;5.10;;
13443;SDS011;6794;59.218;18.218;2022-12-18T05:26:16;9.53;;;5.40;;
13443;SDS011;6794;59.218;18.218;2022-12-18T05:28:42;8.77;;;4.90;;
13443;SDS011;6794;59.218;18.218;2022-12-18T05:31:09;9.37;;;5.60;;
13443;SDS011;6794;59.218;18.218;2022-12-18T05:33:35;11.27;;;5.90;;
13443;SDS011;6794;59.218;18.218;2022-12-18T05:36:02;8.97;;;5.20;;
13443;SDS011;6794;59.218;18.218;2022-12-18T05:38:29;10.07;;;4.70;;
13443;SDS011;6794;59.218;18.218;2022-12-18T05:40:55;9.13;;;5.10;;
13443;SDS011;6794;59.218;18.218;2022-12-18T05:43:21;11.70;;;5.87;;
13443;SDS011;6794;59.218;18.218;2022-12-18T05:45:48;9.70;;;5.60;;
13443;SDS011;6794;59.218;18.218;2022-12-18T05:48:14;9.63;;;5.50;;
13443;SDS011;6794;59.218;18.218;2022-12-18T05:50:41;9.57;;;5.13;;
13443;SDS011;6794;59.218;18.218;2022-12-18T05:53:08;7.93;;;4.73;;
13443;SDS011;6794;59.218;18.218;2022-12-18T05:55:36;6.83;;;4.40;;
13443;SDS011;6794;59.218;18.218;2022-12-18T05:58:03;11.40;;;5.60;;
13443;SDS011;6794;59.218;18.218;2022-12-18T06:00:29;11.40;;;6.13;;
13443;SDS011;6794;59.218;18.218;2022-12-18T06:02:56;8.83;;;5.33;;
13443;SDS011;6794;59.218;18.218;2022-12-18T06:05:23;8.45;;;5.68;;
13443;SDS011;6794;59.218;18.218;2022-12-18T06:07:49;8.47;;;5.10;;
13443;SDS011;6794;59.218;18.218;2022-12-18T06:10:15;8.73;;;5.03;;
13443;SDS011;6794;59.218;18.218;2022-12-18T06:12:41;7.70;;;4.67;;
13443;SDS011;6794;59.218;18.218;2022-12-18T06:15:07;11.13;;;5.60;;
13443;SDS011;6794;59.218;18.218;2022-12-18T06:17:33;8.50;;;5.37;;
13443;SDS011;6794;59.218;18.218;2022-12-18T06:20:00;7.57;;;4.87;;
13443;SDS011;6794;59.218;18.218;2022-12-18T06:22:26;12.13;;;5.30;;
13443;SDS011;6794;59.218;18.218;2022-12-18T06:24:52;9.77;;;5.03;;
13443;SDS011;6794;59.218;18.218;2022-12-18T06:27:18;9.33;;;5.10;;
13443;SDS011;6794;59.218;18.218;2022-12-18T06:29:45;5.87;;;4.43;;
13443;SDS011;6794;59.218;18.218;2022-12-18T06:32:11;11.07;;;5.73;;
13443;SDS011;6794;59.218;18.218;2022-12-18T06:34:37;11.23;;;5.30;;
13443;SDS011;6794;59.218;18.218;2022-12-18T06:37:03;9.13;;;4.67;;
13443;SDS011;6794;59.218;18.218;2022-12-18T06:39:30;7.90;;;5.07;;
13443;SDS011;6794;59.218;18.218;2022-12-18T06:41:56;9.70;;;5.13;;
13443;SDS011;6794;59.218;18.218;2022-12-18T06:44:22;10.03;;;6.13;;
13443;SDS011;6794;59.218;18.218;2022-12-18T06:46:48;9.73;;;5.90;;
13443;SDS011;6794;59.218;18.218;2022-12-18T06:49:14;11.90;;;5.77;;
13443;SDS011;6794;59.218;18.218;2022-12-18T06:51:41;8.25;;;5.47;;
13443;SDS011;6794;59.218;18.218;2022-12-18T06:54:07;9.83;;;5.43;;
13443;SDS011;6794;59.218;18.218;2022-12-18T06:56:33;14.90;;;6.10;;
13443;SDS011;6794;59.218;18.218;2022-12-18T06:58:59;10.63;;;5.10;;
13443;SDS011;6794;59.218;18.218;2022-12-18T07:01:25;11.47;;;5.70;;
13443;SDS011;6794;59.218;18.218;2022-12-18T07:03:51;9.93;;;5.33;;
13443;SDS011;6794;59.218;18.218;2022-12-18T07:06:19;9.30;;;5.63;;
13443;SDS011;6794;59.218;18.218;2022-12-18T07:08:46;9.37;;;6.00;;
13443;SDS011;6794;59.218;18.218;2022-12-18T07:11:12;9.70;;;6.27;;
13443;SDS011;6794;59.218;18.218;2022-12-18T07:13:38;8.40;;;5.70;;
13443;SDS011;6794;59.218;18.218;2022-12-18T07:16:05;12.37;;;6.17;;
13443;SDS011;6794;59.218;18.218;2022-12-18T07:18:31;12.27;;;5.50;;
13443;SDS011;6794;59.218;18.218;2022-12-18T07:20:57;9.40;;;5.73;;
13443;SDS011;6794;59.218;18.218;2022-12-18T07:23:23;10.90;;;6.33;;
13443;SDS011;6794;59.218;18.218;2022-12-18T07:25:49;9.00;;;5.27;;
13443;SDS011;6794;59.218;18.218;2022-12-18T07:28:15;8.37;;;5.60;;
13443;SDS011;6794;59.218;18.218;2022-12-18T07:30:41;12.47;;;6.77;;
13443;SDS011;6794;59.218;18.218;2022-12-18T07:33:07;9.40;;;5.30;;
13443;SDS011;6794;59.218;18.218;2022-12-18T07:35:34;9.60;;;5.70;;
13443;SDS011;6794;59.218;18.218;2022-12-18T07:38:02;10.30;;;5.33;;
13443;SDS011;6794;59.218;18.218;2022-12-18T07:40:28;13.82;;;8.77;;
13443;SDS011;6794;59.218;18.218;2022-12-18T07:42:54;13.83;;;6.83;;
13443;SDS011;6794;59.218;18.218;2022-12-18T07:45:20;11.63;;;6.30;;
13443;SDS011;6794;59.218;18.218;2022-12-18T07:47:46;9.30;;;6.23;;
13443;SDS011;6794;59.218;18.218;2022-12-18T07:50:12;10.87;;;6.73;;
13443;SDS011;6794;59.218;18.218;2022-12-18T07:52:38;15.37;;;6.47;;
13443;SDS011;6794;59.218;18.218;2022-12-18T07:55:04;11.33;;;6.60;;
13443;SDS011;6794;59.218;18.218;2022-12-18T07:57:30;10.23;;;5.60;;
13443;SDS011;6794;59.218;18.218;2022-12-18T07:59:57;11.83;;;6.17;;
13443;SDS011;6794;59.218;18.218;2022-12-18T08:02:23;6.53;;;4.10;;
13443;SDS011;6794;59.218;18.218;2022-12-18T08:04:49;10.93;;;6.40;;
13443;SDS011;6794;59.218;18.218;2022-12-18T08:07:15;12.30;;;6.77;;
13443;SDS011;6794;59.218;18.218;2022-12-18T08:09:41;11.70;;;7.17;;
13443;SDS011;6794;59.218;18.218;2022-12-18T08:12:07;9.20;;;6.20;;
13443;SDS011;6794;59.218;18.218;2022-12-18T08:14:33;13.33;;;7.17;;
13443;SDS011;6794;59.218;18.218;2022-12-18T08:16:59;10.33;;;6.93;;
13443;SDS011;6794;59.218;18.218;2022-12-18T08:19:25;11.83;;;6.27;;
13443;SDS011;6794;59.218;18.218;2022-12-18T08:21:51;10.93;;;6.80;;
13443;SDS011;6794;59.218;18.218;2022-12-18T08:24:17;12.37;;;6.40;;
13443;SDS011;6794;59.218;18.218;2022-12-18T08:26:43;13.20;;;8.33;;
13443;SDS011;6794;59.218;18.218;2022-12-18T08:29:09;9.43;;;6.50;;
13443;SDS011;6794;59.218;18.218;2022-12-18T08:31:35;14.90;;;8.63;;
13443;SDS011;6794;59.218;18.218;2022-12-18T08:34:01;15.33;;;8.17;;
13443;SDS011;6794;59.218;18.218;2022-12-18T08:36:27;10.93;;;6.50;;
13443;SDS011;6794;59.218;18.218;2022-12-18T08:38:53;11.17;;;6.67;;
13443;SDS011;6794;59.218;18.218;2022-12-18T08:41:20;10.63;;;7.03;;
13443;SDS011;6794;59.218;18.218;2022-12-18T08:43:46;11.80;;;8.47;;
13443;SDS011;6794;59.218;18.218;2022-12-18T08:46:44;13.03;;;7.10;;
13443;SDS011;6794;59.218;18.218;2022-12-18T08:49:10;15.60;;;8.23;;
13443;SDS011;6794;59.218;18.218;2022-12-18T08:51:37;11.53;;;6.50;;
13443;SDS011;6794;59.218;18.218;2022-12-18T08:54:04;9.97;;;6.80;;
13443;SDS011;6794;59.218;18.218;2022-12-18T08:56:30;12.10;;;6.87;;
13443;SDS011;6794;59.218;18.218;2022-12-18T08:58:56;14.63;;;7.80;;
13443;SDS011;6794;59.218;18.218;2022-12-18T09:01:22;10.90;;;7.70;;
13443;SDS011;6794;59.218;18.218;2022-12-18T09:03:48;12.13;;;6.27;;
13443;SDS011;6794;59.218;18.218;2022-12-18T09:06:20;12.23;;;6.60;;
13443;SDS011;6794;59.218;18.218;2022-12-18T09:08:46;9.23;;;6.43;;
13443;SDS011;6794;59.218;18.218;2022-12-18T09:11:14;9.57;;;6.00;;
13443;SDS011;6794;59.218;18.218;2022-12-18T09:13:40;11.98;;;7.43;;
13443;SDS011;6794;59.218;18.218;2022-12-18T09:16:06;10.40;;;6.53;;
13443;SDS011;6794;59.218;18.218;2022-12-18T09:18:32;10.10;;;6.60;;
13443;SDS011;6794;59.218;18.218;2022-12-18T09:20:58;9.20;;;6.23;;
13443;SDS011;6794;59.218;18.218;2022-12-18T09:23:24;8.57;;;6.07;;
13443;SDS011;6794;59.218;18.218;2022-12-18T09:25:50;10.50;;;6.03;;
13443;SDS011;6794;59.218;18.218;2022-12-18T09:28:17;8.70;;;6.13;;
13443;SDS011;6794;59.218;18.218;2022-12-18T09:30:45;9.23;;;5.77;;
13443;SDS011;6794;59.218;18.218;2022-12-18T09:33:11;9.10;;;5.63;;
13443;SDS011;6794;59.218;18.218;2022-12-18T09:35:39;7.37;;;5.10;;
13443;SDS011;6794;59.218;18.218;2022-12-18T09:38:06;9.83;;;6.13;;
13443;SDS011;6794;59.218;18.218;2022-12-18T09:40:39;7.50;;;5.17;;
13443;SDS011;6794;59.218;18.218;2022-12-18T09:43:07;8.00;;;5.60;;
13443;SDS011;6794;59.218;18.218;2022-12-18T09:45:43;9.27;;;5.10;;
13443;SDS011;6794;59.218;18.218;2022-12-18T09:48:11;10.07;;;5.97;;
13443;SDS011;6794;59.218;18.218;2022-12-18T09:50:41;8.70;;;5.43;;
13443;SDS011;6794;59.218;18.218;2022-12-18T09:53:13;10.47;;;5.70;;
13443;SDS011;6794;59.218;18.218;2022-12-18T09:55:45;8.67;;;5.63;;
13443;SDS011;6794;59.218;18.218;2022-12-18T10:00:37;8.77;;;5.40;;
13443;SDS011;6794;59.218;18.218;2022-12-18T10:03:10;11.30;;;7.70;;
13443;SDS011;6794;59.218;18.218;2022-12-18T10:05:49;11.30;;;6.43;;
13443;SDS011;6794;59.218;18.218;2022-12-18T10:13:56;8.37;;;5.43;;
13443;SDS011;6794;59.218;18.218;2022-12-18T10:16:28;10.57;;;5.23;;
13443;SDS011;6794;59.218;18.218;2022-12-18T10:24:25;9.43;;;6.17;;
13443;SDS011;6794;59.218;18.218;2022-12-18T10:26:52;10.77;;;6.60;;
13443;SDS011;6794;59.218;18.218;2022-12-18T10:29:21;11.00;;;5.83;;
13443;SDS011;6794;59.218;18.218;2022-12-18T10:31:47;9.60;;;6.00;;
13443;SDS011;6794;59.218;18.218;2022-12-18T10:34:14;11.57;;;5.60;;
13443;SDS011;6794;59.218;18.218;2022-12-18T10:36:40;9.97;;;5.90;;
13443;SDS011;6794;59.218;18.218;2022-12-18T10:39:20;10.67;;;6.00;;
13443;SDS011;6794;59.218;18.218;2022-12-18T10:41:47;8.07;;;5.80;;
13443;SDS011;6794;59.218;18.218;2022-12-18T10:44:22;8.67;;;5.43;;
13443;SDS011;6794;59.218;18.218;2022-12-18T10:46:55;8.17;;;5.67;;
13443;SDS011;6794;59.218;18.218;2022-12-18T10:49:33;9.93;;;7.50;;
13443;SDS011;6794;59.218;18.218;2022-12-18T10:52:05;7.37;;;4.00;;
13443;SDS011;6794;59.218;18.218;2022-12-18T10:54:32;9.80;;;5.57;;
13443;SDS011;6794;59.218;18.218;2022-12-18T10:57:29;9.07;;;6.00;;
13443;SDS011;6794;59.218;18.218;2022-12-18T10:59:52;9.97;;;6.50;;
13443;SDS011;6794;59.218;18.218;2022-12-18T11:04:57;8.70;;;5.67;;
13443;SDS011;6794;59.218;18.218;2022-12-18T11:07:23;8.73;;;5.50;;
13443;SDS011;6794;59.218;18.218;2022-12-18T11:09:59;10.00;;;5.10;;
13443;SDS011;6794;59.218;18.218;2022-12-18T11:12:28;7.07;;;5.40;;
13443;SDS011;6794;59.218;18.218;2022-12-18T11:14:56;9.53;;;6.77;;
13443;SDS011;6794;59.218;18.218;2022-12-18T11:17:29;8.67;;;5.90;;
13443;SDS011;6794;59.218;18.218;2022-12-18T11:19:56;12.00;;;6.30;;
13443;SDS011;6794;59.218;18.218;2022-12-18T11:22:26;8.43;;;4.90;;
13443;SDS011;6794;59.218;18.218;2022-12-18T11:24:54;9.20;;;5.63;;
13443;SDS011;6794;59.218;18.218;2022-12-18T11:27:21;9.60;;;6.33;;
13443;SDS011;6794;59.218;18.218;2022-12-18T11:29:47;12.77;;;5.57;;
13443;SDS011;6794;59.218;18.218;2022-12-18T11:35:03;10.83;;;7.40;;
13443;SDS011;6794;59.218;18.218;2022-12-18T11:37:29;8.73;;;5.57;;
13443;SDS011;6794;59.218;18.218;2022-12-18T11:39:58;8.83;;;6.03;;
13443;SDS011;6794;59.218;18.218;2022-12-18T11:42:41;10.47;;;5.90;;
13443;SDS011;6794;59.218;18.218;2022-12-18T11:47:39;9.07;;;5.30;;
13443;SDS011;6794;59.218;18.218;2022-12-18T11:50:17;8.10;;;5.63;;
13443;SDS011;6794;59.218;18.218;2022-12-18T11:52:44;14.67;;;5.80;;
13443;SDS011;6794;59.218;18.218;2022-12-18T11:55:14;11.43;;;5.20;;
13443;SDS011;6794;59.218;18.218;2022-12-18T12:00:26;8.73;;;5.40;;
13443;SDS011;6794;59.218;18.218;2022-12-18T12:10:33;8.53;;;5.03;;
13443;SDS011;6794;59.218;18.218;2022-12-18T12:16:02;7.67;;;4.90;;
13443;SDS011;6794;59.218;18.218;2022-12-18T12:23:47;8.23;;;5.53;;
13443;SDS011;6794;59.218;18.218;2022-12-18T12:33:47;10.17;;;5.40;;
13443;SDS011;6794;59.218;18.218;2022-12-18T12:36:18;8.60;;;4.83;;
13443;SDS011;6794;59.218;18.218;2022-12-18T12:38:48;7.53;;;4.83;;
13443;SDS011;6794;59.218;18.218;2022-12-18T12:41:17;8.20;;;5.30;;
13443;SDS011;6794;59.218;18.218;2022-12-18T12:44:03;10.47;;;5.53;;
13443;SDS011;6794;59.218;18.218;2022-12-18T12:46:31;6.07;;;4.30;;
13443;SDS011;6794;59.218;18.218;2022-12-18T12:48:59;10.10;;;5.17;;
13443;SDS011;6794;59.218;18.218;2022-12-18T12:51:28;8.10;;;4.77;;
13443;SDS011;6794;59.218;18.218;2022-12-18T12:53:54;8.03;;;4.87;;
13443;SDS011;6794;59.218;18.218;2022-12-18T12:56:22;7.60;;;4.77;;
13443;SDS011;6794;59.218;18.218;2022-12-18T13:01:32;10.47;;;5.63;;
13443;SDS011;6794;59.218;18.218;2022-12-18T13:04:02;9.23;;;5.68;;
13443;SDS011;6794;59.218;18.218;2022-12-18T13:09:00;6.30;;;4.73;;
13443;SDS011;6794;59.218;18.218;2022-12-18T13:11:30;10.10;;;5.17;;
13443;SDS011;6794;59.218;18.218;2022-12-18T13:14:22;5.63;;;3.73;;
13443;SDS011;6794;59.218;18.218;2022-12-18T13:16:49;9.40;;;4.93;;
13443;SDS011;6794;59.218;18.218;2022-12-18T13:19:22;6.53;;;4.17;;
13443;SDS011;6794;59.218;18.218;2022-12-18T13:21:54;8.10;;;4.73;;
13443;SDS011;6794;59.218;18.218;2022-12-18T13:26:47;9.43;;;4.13;;
13443;SDS011;6794;59.218;18.218;2022-12-18T13:29:14;5.47;;;3.93;;
13443;SDS011;6794;59.218;18.218;2022-12-18T13:31:59;9.77;;;5.33;;
13443;SDS011;6794;59.218;18.218;2022-12-18T13:34:26;7.97;;;4.87;;
13443;SDS011;6794;59.218;18.218;2022-12-18T13:36:54;7.80;;;5.00;;
13443;SDS011;6794;59.218;18.218;2022-12-18T13:39:22;11.80;;;4.30;;
13443;SDS011;6794;59.218;18.218;2022-12-18T13:41:52;8.20;;;4.50;;
13443;SDS011;6794;59.218;18.218;2022-12-18T13:46:53;7.10;;;4.50;;
13443;SDS011;6794;59.218;18.218;2022-12-18T13:49:24;3.53;;;2.77;;
13443;SDS011;6794;59.218;18.218;2022-12-18T13:51:55;8.00;;;4.60;;
13443;SDS011;6794;59.218;18.218;2022-12-18T13:54:37;8.87;;;4.57;;
13443;SDS011;6794;59.218;18.218;2022-12-18T13:57:05;5.93;;;3.00;;
13443;SDS011;6794;59.218;18.218;2022-12-18T14:01:59;9.67;;;4.67;;
13443;SDS011;6794;59.218;18.218;2022-12-18T14:04:32;6.10;;;3.33;;
13443;SDS011;6794;59.218;18.218;2022-12-18T14:07:06;6.43;;;3.87;;
13443;SDS011;6794;59.218;18.218;2022-12-18T14:09:36;8.93;;;4.77;;
13443;SDS011;6794;59.218;18.218;2022-12-18T14:12:03;7.20;;;3.60;;
13443;SDS011;6794;59.218;18.218;2022-12-18T14:14:48;6.50;;;4.30;;
13443;SDS011;6794;59.218;18.218;2022-12-18T14:17:16;8.50;;;3.93;;
13443;SDS011;6794;59.218;18.218;2022-12-18T14:19:43;8.85;;;4.40;;
13443;SDS011;6794;59.218;18.218;2022-12-18T14:22:20;11.00;;;4.50;;
13443;SDS011;6794;59.218;18.218;2022-12-18T14:24:46;6.63;;;3.73;;
13443;SDS011;6794;59.218;18.218;2022-12-18T14:27:23;6.57;;;3.70;;
13443;SDS011;6794;59.218;18.218;2022-12-18T14:29:49;8.07;;;3.77;;
13443;SDS011;6794;59.218;18.218;2022-12-18T14:32:16;7.20;;;3.73;;
13443;SDS011;6794;59.218;18.218;2022-12-18T14:34:44;7.27;;;3.60;;
13443;SDS011;6794;59.218;18.218;2022-12-18T14:37:10;6.80;;;3.77;;
13443;SDS011;6794;59.218;18.218;2022-12-18T14:39:37;9.70;;;3.57;;
13443;SDS011;6794;59.218;18.218;2022-12-18T14:42:03;5.83;;;4.13;;
13443;SDS011;6794;59.218;18.218;2022-12-18T14:44:29;7.90;;;3.47;;
13443;SDS011;6794;59.218;18.218;2022-12-18T14:46:55;5.60;;;3.53;;
13443;SDS011;6794;59.218;18.218;2022-12-18T14:49:32;8.80;;;3.92;;
13443;SDS011;6794;59.218;18.218;2022-12-18T14:52:02;6.37;;;3.57;;
13443;SDS011;6794;59.218;18.218;2022-12-18T14:54:29;4.53;;;2.90;;
13443;SDS011;6794;59.218;18.218;2022-12-18T14:59:30;5.83;;;3.10;;
13443;SDS011;6794;59.218;18.218;2022-12-18T15:04:41;8.00;;;3.57;;
13443;SDS011;6794;59.218;18.218;2022-12-18T15:07:21;5.13;;;2.60;;
13443;SDS011;6794;59.218;18.218;2022-12-18T15:14:58;7.17;;;3.23;;
13443;SDS011;6794;59.218;18.218;2022-12-18T15:17:24;7.73;;;3.30;;
13443;SDS011;6794;59.218;18.218;2022-12-18T15:19:51;7.10;;;4.00;;
13443;SDS011;6794;59.218;18.218;2022-12-18T15:22:30;4.10;;;2.87;;
13443;SDS011;6794;59.218;18.218;2022-12-18T15:24:59;6.00;;;2.60;;
13443;SDS011;6794;59.218;18.218;2022-12-18T15:27:29;6.33;;;3.13;;
13443;SDS011;6794;59.218;18.218;2022-12-18T15:29:59;4.17;;;2.63;;
13443;SDS011;6794;59.218;18.218;2022-12-18T15:32:25;9.03;;;3.50;;
13443;SDS011;6794;59.218;18.218;2022-12-18T15:35:01;4.03;;;2.80;;
13443;SDS011;6794;59.218;18.218;2022-12-18T15:37:27;5.57;;;2.67;;
13443;SDS011;6794;59.218;18.218;2022-12-18T15:39:53;8.40;;;2.50;;
13443;SDS011;6794;59.218;18.218;2022-12-18T15:42:19;6.23;;;2.70;;
13443;SDS011;6794;59.218;18.218;2022-12-18T15:45:04;5.27;;;2.87;;
13443;SDS011;6794;59.218;18.218;2022-12-18T15:47:30;4.63;;;2.33;;
13443;SDS011;6794;59.218;18.218;2022-12-18T15:49:57;6.55;;;3.00;;
13443;SDS011;6794;59.218;18.218;2022-12-18T15:52:23;6.07;;;2.63;;
13443;SDS011;6794;59.218;18.218;2022-12-18T15:54:50;4.30;;;2.20;;
13443;SDS011;6794;59.218;18.218;2022-12-18T15:57:35;8.33;;;2.67;;
13443;SDS011;6794;59.218;18.218;2022-12-18T16:00:01;5.40;;;2.33;;
13443;SDS011;6794;59.218;18.218;2022-12-18T16:02:27;5.93;;;2.90;;
13443;SDS011;6794;59.218;18.218;2022-12-18T16:04:53;4.30;;;2.33;;
13443;SDS011;6794;59.218;18.218;2022-12-18T16:07:20;4.87;;;2.53;;
13443;SDS011;6794;59.218;18.218;2022-12-18T16:09:49;5.50;;;2.30;;
13443;SDS011;6794;59.218;18.218;2022-12-18T16:12:19;5.47;;;2.60;;
13443;SDS011;6794;59.218;18.218;2022-12-18T16:14:46;5.83;;;2.37;;
13443;SDS011;6794;59.218;18.218;2022-12-18T16:17:13;6.40;;;2.47;;
13443;SDS011;6794;59.218;18.218;2022-12-18T16:19:39;5.50;;;3.10;;
13443;SDS011;6794;59.218;18.218;2022-12-18T16:22:15;5.87;;;2.60;;